Friday, November 24, 2017, 12:34 AM EST
Back to Local

KMUI, Muir Army Air Field / Indiantown

Location: Jonestown, PA, United States Lat: 40.433
Local Time: 12:34 AM EST ( 5:34 GMT) Lon: -76.567
Time Zone: US/Eastern Elev: 488 ft

Show me the last for .
Show Decoded

2017-11-23 23:56 METAR KMUI 240456Z AUTO 00000KT 10SM CLR M04/M05 A3004 RMK AO2 SLP181 T10411048
                 400481047 TSNO $ =
2017-11-23 22:56 METAR KMUI 240356Z AUTO 00000KT 10SM CLR M03/M05 A3005 RMK AO2 SLP184 T10331050
                 TSNO $ =
2017-11-23 21:56 METAR KMUI 240256Z AUTO 00000KT 10SM CLR M03/M05 A3004 RMK AO2 SLP181 T10291048
                 52006 TSNO $ =
2017-11-23 20:56 METAR KMUI 240156Z AUTO 00000KT 10SM CLR M01/M05 A3003 RMK AO2 SLP177 T10131053
                 TSNO $ =
2017-11-23 19:56 METAR KMUI 240056Z AUTO 00000KT 10SM CLR M02/M05 A3003 RMK AO2 SLP178 T10201050
                 TSNO $ =
2017-11-23 18:56 METAR KMUI 232356Z AUTO 00000KT 10SM CLR M01/M05 A3002 RMK AO2 SLP175 T10111051
                 10048 21014 58002 TSNO $ =
2017-11-23 17:56 METAR KMUI 232256Z AUTO 00000KT 10SM CLR 00/M06 A3003 RMK AO2 SLP177 T00031057
                 TSNO $ =
2017-11-23 16:56 METAR KMUI 232156Z AUTO 00000KT 10SM CLR 03/M07 A3003 RMK AO2 SLP177 T00331067
                 TSNO $ =
2017-11-23 15:56 METAR KMUI 232056Z AUTO 21004KT 10SM SCT160 BKN180 04/M06 A3003 RMK AO2 SLP176
                 T00391064 57014 TSNO $ =
2017-11-23 14:56 METAR KMUI 231956Z AUTO 00000KT 10SM CLR 05/M07 A3004 RMK AO2 SLP180 T00461075
                 TSNO $ =
2017-11-23 13:56 METAR KMUI 231856Z AUTO 32006KT 10SM CLR 05/M08 A3005 RMK AO2 SLP183 T00451079
                 TSNO $ =
2017-11-23 12:56 METAR KMUI 231756Z AUTO 01005KT 10SM CLR 04/M08 A3007 RMK AO2 SLP190 T00421076
                 10042 21022 57028 TSNO $ =
2017-11-23 11:56 METAR KMUI 231656Z AUTO 36005KT 10SM CLR 04/M07 A3010 RMK AO2 SLP200 T00351073
                 TSNO $ =
2017-11-23 10:56 METAR KMUI 231556Z AUTO 36007KT 10SM CLR 02/M08 A3013 RMK AO2 SLP210 T00241078
                 TSNO $ =
2017-11-23 09:56 METAR KMUI 231456Z AUTO 31005KT 10SM CLR 02/M08 A3016 RMK AO2 SLP221 T00151078
                 50005 TSNO $ =
2017-11-23 08:56 METAR KMUI 231356Z AUTO 30003KT 10SM CLR 00/M08 A3015 RMK AO2 SLP218 T00041078
                 TSNO $ =
2017-11-23 07:56 METAR KMUI 231256Z AUTO 00000KT 10SM CLR 00/M08 A3016 RMK AO2 SLP221 T10051082
                 TSNO $ =
2017-11-23 06:56 METAR KMUI 231156Z AUTO 31003KT 10SM CLR M02/M08 A3014 RMK AO2 SLP214 T10201081
                 10005 21022 53004 TSNO $ =
2017-11-23 05:56 METAR KMUI 231056Z AUTO 30003KT 10SM CLR M01/M08 A3013 RMK AO2 SLP210 T10091084
                 TSNO $ =
2017-11-23 04:56 METAR KMUI 230956Z AUTO 29006KT 10SM CLR M01/M08 A3012 RMK AO2 SLP207 T10081085
                 TSNO $ =
2017-11-23 03:56 METAR KMUI 230856Z AUTO 34004KT 10SM CLR M01/M08 A3013 RMK AO2 SLP210 T10081083
                 58004 TSNO $ =
2017-11-23 02:56 METAR KMUI 230756Z AUTO 00000KT 10SM CLR M01/M08 A3013 RMK AO2 SLP210 T10091079
                 TSNO $ =
2017-11-23 01:56 METAR KMUI 230656Z AUTO 00000KT 10SM CLR 00/M08 A3014 RMK AO2 SLP213 T10011081
                 TSNO $ =
2017-11-23 00:56 METAR KMUI 230556Z AUTO 30005KT 10SM CLR 01/M08 A3014 RMK AO2 SLP213 T00061079
                 10031 20005 55003 TSNO $ =

Support USWX by starting your Amazon purchase here.